Time;durP1;ratioP1;P1;durP2;ratioP2;P2;SDS_P1;SDS_P2;PMS_P1;PMS_P2;Temp;Humidity;BMP_temperature;BMP_pressure;BME280_temperature;BME280_humidity;BME280_pressure;Samples;Min_cycle;Max_cycle;Signal;HPM_P1;HPM_P2
2022/04/07 00:01:31;;;;;;;;;;;9.30;99.90;;;;;;5109580;28;20381;-61
2022/04/07 00:03:56;;;;;;;;;;;9.20;99.90;;;;;;5108385;28;19920;-62
2022/04/07 00:06:22;;;;;;;;;;;9.20;99.90;;;;;;5110967;28;19919;-62
2022/04/07 00:08:49;;;;;;;;;;;9.10;99.90;;;;;;5103171;28;20276;-63
2022/04/07 00:11:15;;;;;;;;;;;9.10;99.90;;;;;;5104558;28;20384;-62
2022/04/07 00:13:41;;;;;;;;;;;9.10;99.90;;;;;;5105013;28;19912;-63
2022/04/07 00:16:08;;;;;;;;;;;9.10;99.90;;;;;;5109597;28;19923;-63
2022/04/07 00:18:33;;;;;;;;;;;9.00;99.90;;;;;;5098717;28;20397;-64
2022/04/07 00:21:00;;;;;;;;;;;9.00;99.90;;;;;;5099908;28;19916;-61
2022/04/07 00:23:25;;;;;;;;;;;8.90;99.90;;;;;;5099001;28;19923;-61
2022/04/07 00:25:51;;;;;;;;;;;8.90;99.90;;;;;;5105691;28;19912;-61
2022/04/07 00:28:16;;;;;;;;;;;8.90;99.90;;;;;;5096759;28;19920;-64
2022/04/07 00:30:43;;;;;;;;;;;8.90;99.90;;;;;;5110303;28;19964;-60
2022/04/07 00:33:09;;;;;;;;;;;8.90;99.90;;;;;;5106462;27;19918;-61
2022/04/07 00:35:35;;;;;;;;;;;8.90;99.90;;;;;;5121099;27;19924;-61
2022/04/07 00:38:01;;;;;;;;;;;8.90;99.90;;;;;;5125526;27;19923;-63
2022/04/07 00:40:27;;;;;;;;;;;8.90;99.90;;;;;;5114381;27;19915;-62
2022/04/07 00:42:53;;;;;;;;;;;8.90;99.90;;;;;;5125112;27;19927;-65
2022/04/07 00:45:19;;;;;;;;;;;9.00;99.90;;;;;;5110999;28;20058;-62
2022/04/07 00:47:46;;;;;;;;;;;8.90;99.90;;;;;;5125989;27;19918;-61
2022/04/07 00:50:12;;;;;;;;;;;9.00;99.90;;;;;;5129648;27;19911;-62
2022/04/07 00:52:41;;;;;;;;;;;9.00;99.90;;;;;;5122812;27;19912;-62
2022/04/07 00:55:08;;;;;;;;;;;9.00;99.90;;;;;;5109973;28;19919;-61
2022/04/07 00:57:34;;;;;;;;;;;9.00;99.90;;;;;;5125662;27;19942;-62
2022/04/07 01:00:00;;;;;;;;;;;9.00;99.90;;;;;;5123477;28;20368;-62
2022/04/07 01:02:26;;;;;;;;;;;9.00;99.90;;;;;;5107586;28;19924;-65
2022/04/07 01:04:51;;;;;;;;;;;9.00;99.90;;;;;;5116579;27;20396;-62
2022/04/07 01:07:18;;;;;;;;;;;9.00;99.90;;;;;;5123721;27;20379;-63
2022/04/07 01:09:43;;;;;;;;;;;9.00;99.90;;;;;;5112790;28;20209;-63
2022/04/07 01:12:10;;;;;;;;;;;9.00;99.90;;;;;;5110441;28;20372;-61
2022/04/07 01:14:48;;;;;;;;;;;9.00;99.90;;;;;;5126463;27;19998;-61
2022/04/07 01:17:14;;;;;;;;;;;8.90;99.90;;;;;;5127153;28;19912;-63
2022/04/07 01:19:40;;;;;;;;;;;9.00;99.90;;;;;;5126526;27;19968;-61
2022/04/07 01:22:05;;;;;;;;;;;9.00;99.90;;;;;;5131892;27;19999;-62
2022/04/07 01:24:31;;;;;;;;;;;8.90;99.90;;;;;;5128995;27;19926;-62
2022/04/07 01:26:57;;;;;;;;;;;8.80;99.90;;;;;;5111556;28;19955;-61
2022/04/07 01:29:25;;;;;;;;;;;8.80;99.90;;;;;;5123919;27;20020;-61
2022/04/07 01:31:51;;;;;;;;;;;8.70;99.90;;;;;;5123655;28;19919;-62
2022/04/07 01:34:17;;;;;;;;;;;8.60;99.90;;;;;;5129479;28;19911;-62
2022/04/07 01:36:45;;;;;;;;;;;8.60;99.90;;;;;;5123535;27;20280;-63
2022/04/07 01:39:13;;;;;;;;;;;8.50;99.90;;;;;;5125583;27;19920;-62
2022/04/07 01:41:40;;;;;;;;;;;8.40;99.90;;;;;;5106694;28;20288;-63
2022/04/07 01:44:07;;;;;;;;;;;8.40;99.90;;;;;;5126528;28;19918;-62
2022/04/07 01:46:33;;;;;;;;;;;8.40;99.90;;;;;;5121020;27;19912;-62
2022/04/07 01:48:59;;;;;;;;;;;8.40;99.90;;;;;;5125298;27;20025;-63
2022/04/07 01:51:26;;;;;;;;;;;8.40;99.90;;;;;;5103149;28;19912;-61
2022/04/07 01:53:52;;;;;;;;;;;8.40;99.90;;;;;;5122143;28;19912;-63
2022/04/07 01:56:18;;;;;;;;;;;8.40;99.90;;;;;;5106599;27;19918;-62
2022/04/07 01:58:43;;;;;;;;;;;8.50;99.90;;;;;;5127356;27;20019;-61
2022/04/07 02:01:09;;;;;;;;;;;8.60;99.90;;;;;;5130041;27;20010;-62
2022/04/07 02:03:35;;;;;;;;;;;8.70;99.90;;;;;;5107967;27;19968;-62
2022/04/07 02:06:11;;;;;;;;;;;8.90;99.90;;;;;;5119874;27;19912;-62
2022/04/07 02:08:37;;;;;;;;;;;8.90;99.90;;;;;;5133978;27;19911;-62
2022/04/07 02:11:02;;;;;;;;;;;9.00;99.90;;;;;;5109412;27;19911;-63
2022/04/07 02:13:31;;;;;;;;;;;9.00;99.90;;;;;;5118992;27;19935;-62
2022/04/07 02:15:57;;;;;;;;;;;8.90;99.90;;;;;;5109145;27;19919;-62
2022/04/07 02:18:22;;;;;;;;;;;9.00;99.90;;;;;;5132723;27;20293;-62
2022/04/07 02:20:48;;;;;;;;;;;9.00;99.90;;;;;;5121174;27;19923;-61
2022/04/07 02:23:13;;;;;;;;;;;9.00;99.90;;;;;;5130949;27;19951;-62
2022/04/07 02:25:39;;;;;;;;;;;9.00;99.90;;;;;;5130642;27;19926;-62
2022/04/07 02:28:05;;;;;;;;;;;9.10;99.90;;;;;;5130094;27;19972;-62
2022/04/07 02:30:30;;;;;;;;;;;9.00;99.90;;;;;;5124985;27;19964;-62
2022/04/07 02:32:56;;;;;;;;;;;9.10;99.90;;;;;;5111307;27;20280;-61
2022/04/07 02:35:22;;;;;;;;;;;9.10;99.90;;;;;;5131676;27;19935;-62
2022/04/07 02:37:47;;;;;;;;;;;9.00;99.90;;;;;;5125925;27;19918;-62
2022/04/07 02:40:13;;;;;;;;;;;9.00;99.90;;;;;;5127840;27;19915;-61
2022/04/07 02:42:39;;;;;;;;;;;9.00;99.90;;;;;;5127804;27;19918;-62
2022/04/07 02:45:05;;;;;;;;;;;8.90;99.90;;;;;;5112206;27;20588;-62
2022/04/07 02:47:31;;;;;;;;;;;8.90;99.90;;;;;;5115406;27;19911;-62
2022/04/07 02:49:57;;;;;;;;;;;9.00;99.90;;;;;;5122833;27;19923;-62
2022/04/07 02:52:22;;;;;;;;;;;8.90;99.90;;;;;;5127555;27;19915;-61
2022/04/07 02:54:48;;;;;;;;;;;8.90;99.90;;;;;;5125457;27;19915;-61
2022/04/07 02:57:13;;;;;;;;;;;8.90;99.90;;;;;;5125493;27;19911;-61
2022/04/07 02:59:39;;;;;;;;;;;9.00;99.90;;;;;;5104044;27;20377;-62
2022/04/07 03:02:05;;;;;;;;;;;9.00;99.90;;;;;;5123931;27;19911;-62
2022/04/07 03:04:30;;;;;;;;;;;9.00;99.90;;;;;;5131176;27;20377;-60
2022/04/07 03:06:56;;;;;;;;;;;9.00;99.90;;;;;;5105851;27;20357;-61
2022/04/07 03:09:22;;;;;;;;;;;9.10;99.90;;;;;;5127554;27;19998;-61
2022/04/07 03:11:47;;;;;;;;;;;9.10;99.90;;;;;;5111789;27;20356;-62
2022/04/07 03:14:13;;;;;;;;;;;9.00;99.90;;;;;;5129834;27;19912;-61
2022/04/07 03:16:48;;;;;;;;;;;9.00;99.90;;;;;;5090016;27;19919;-62
2022/04/07 03:19:15;;;;;;;;;;;9.00;99.90;;;;;;5108435;28;19976;-61
2022/04/07 03:21:41;;;;;;;;;;;9.00;99.90;;;;;;5111696;27;19937;-62
2022/04/07 03:24:06;;;;;;;;;;;9.00;99.90;;;;;;5123286;27;20002;-61
2022/04/07 03:26:32;;;;;;;;;;;8.90;99.90;;;;;;5124305;27;20005;-61
2022/04/07 03:28:58;;;;;;;;;;;9.00;99.90;;;;;;5131211;27;20007;-61
2022/04/07 03:31:23;;;;;;;;;;;9.00;99.90;;;;;;5112863;27;19919;-61
2022/04/07 03:33:49;;;;;;;;;;;9.10;99.90;;;;;;5119510;27;19912;-62
2022/04/07 03:36:14;;;;;;;;;;;9.10;99.90;;;;;;5127035;27;19927;-61
2022/04/07 03:38:40;;;;;;;;;;;9.10;99.90;;;;;;5109759;27;20052;-61
2022/04/07 03:41:08;;;;;;;;;;;9.10;99.90;;;;;;5120227;27;20258;-61
2022/04/07 03:43:34;;;;;;;;;;;9.10;99.90;;;;;;5125717;27;19918;-62
2022/04/07 03:45:59;;;;;;;;;;;9.10;99.90;;;;;;5121577;27;19960;-61
2022/04/07 03:48:25;;;;;;;;;;;9.20;99.90;;;;;;5131289;27;19912;-60
2022/04/07 03:50:50;;;;;;;;;;;9.20;99.90;;;;;;5109241;27;19917;-62
2022/04/07 03:53:16;;;;;;;;;;;9.20;99.90;;;;;;5131656;27;19999;-60
2022/04/07 03:55:41;;;;;;;;;;;9.20;99.90;;;;;;5122328;27;19912;-61
2022/04/07 03:58:07;;;;;;;;;;;9.20;99.90;;;;;;5114065;27;19931;-62
2022/04/07 04:00:33;;;;;;;;;;;9.10;99.90;;;;;;5127719;27;20384;-62
2022/04/07 04:02:58;;;;;;;;;;;9.10;99.90;;;;;;5112075;27;20432;-62
2022/04/07 04:05:24;;;;;;;;;;;9.10;99.90;;;;;;5106921;27;19965;-63
2022/04/07 04:07:49;;;;;;;;;;;9.00;99.90;;;;;;5130678;27;19911;-63
2022/04/07 04:10:15;;;;;;;;;;;9.00;99.90;;;;;;5108791;27;19957;-62
2022/04/07 04:12:41;;;;;;;;;;;8.90;99.90;;;;;;5123810;27;19919;-63
2022/04/07 04:15:06;;;;;;;;;;;8.90;99.90;;;;;;5124164;27;19923;-63
2022/04/07 04:17:32;;;;;;;;;;;8.80;99.90;;;;;;5116863;27;19937;-62
2022/04/07 04:19:58;;;;;;;;;;;8.80;99.90;;;;;;5120229;27;20381;-61
2022/04/07 04:22:24;;;;;;;;;;;8.80;99.90;;;;;;5125270;27;19912;-62
2022/04/07 04:24:50;;;;;;;;;;;8.90;99.90;;;;;;5116730;27;19911;-62
2022/04/07 04:27:15;;;;;;;;;;;8.80;99.90;;;;;;5131022;27;19925;-62
2022/04/07 04:29:44;;;;;;;;;;;8.80;99.90;;;;;;5128377;27;19935;-61
2022/04/07 04:32:10;;;;;;;;;;;8.80;99.90;;;;;;5107772;28;20414;-61
2022/04/07 04:34:35;;;;;;;;;;;8.80;99.90;;;;;;5128019;27;20089;-61
2022/04/07 04:37:07;;;;;;;;;;;8.80;99.90;;;;;;5126627;27;20392;-61
2022/04/07 04:39:33;;;;;;;;;;;8.80;99.90;;;;;;5115711;27;19922;-63
2022/04/07 04:41:58;;;;;;;;;;;8.80;99.90;;;;;;5129300;27;20345;-63
2022/04/07 04:44:24;;;;;;;;;;;8.70;99.90;;;;;;5122480;27;19912;-60
2022/04/07 04:46:50;;;;;;;;;;;8.70;99.90;;;;;;5124274;27;19935;-61
2022/04/07 04:49:15;;;;;;;;;;;8.60;99.90;;;;;;5125807;27;20272;-61
2022/04/07 04:51:41;;;;;;;;;;;8.60;99.90;;;;;;5131596;27;20308;-61
2022/04/07 04:54:06;;;;;;;;;;;8.60;99.90;;;;;;5121857;27;20402;-61
2022/04/07 04:56:32;;;;;;;;;;;8.60;99.90;;;;;;5118909;27;19926;-61
2022/04/07 04:58:58;;;;;;;;;;;8.50;99.90;;;;;;5132373;28;20272;-63
2022/04/07 05:01:24;;;;;;;;;;;8.50;99.90;;;;;;5131135;28;19959;-62
2022/04/07 05:03:49;;;;;;;;;;;8.50;99.90;;;;;;5125507;27;20372;-61
2022/04/07 05:06:15;;;;;;;;;;;8.50;99.90;;;;;;5112936;27;19922;-61
2022/04/07 05:08:41;;;;;;;;;;;8.50;99.90;;;;;;5128130;27;19947;-62
2022/04/07 05:11:06;;;;;;;;;;;8.50;99.90;;;;;;5130677;28;19923;-63
2022/04/07 05:13:32;;;;;;;;;;;8.50;99.90;;;;;;5135079;28;19911;-62
2022/04/07 05:15:57;;;;;;;;;;;8.50;99.90;;;;;;5123438;28;19934;-61
2022/04/07 05:18:23;;;;;;;;;;;8.60;99.90;;;;;;5127226;28;19930;-62
2022/04/07 05:20:48;;;;;;;;;;;8.50;99.90;;;;;;5131881;27;19915;-61
2022/04/07 05:23:14;;;;;;;;;;;8.50;99.90;;;;;;5124692;28;20381;-62
2022/04/07 05:25:39;;;;;;;;;;;8.60;99.90;;;;;;5123727;27;19911;-62
2022/04/07 05:28:06;;;;;;;;;;;8.60;99.90;;;;;;5133880;28;19995;-61
2022/04/07 05:30:32;;;;;;;;;;;8.60;99.90;;;;;;5120086;27;19924;-60
2022/04/07 05:32:57;;;;;;;;;;;8.60;99.90;;;;;;5129341;27;19918;-62
2022/04/07 05:35:26;;;;;;;;;;;8.60;99.90;;;;;;5140631;27;19934;-62
2022/04/07 05:37:56;;;;;;;;;;;8.60;99.90;;;;;;5121779;28;19916;-62
2022/04/07 05:40:22;;;;;;;;;;;8.60;99.90;;;;;;5122637;27;20047;-62
2022/04/07 05:42:47;;;;;;;;;;;8.60;99.90;;;;;;5143664;27;20403;-61
2022/04/07 05:45:13;;;;;;;;;;;8.60;99.90;;;;;;5135792;27;20018;-62
2022/04/07 05:47:39;;;;;;;;;;;8.60;99.90;;;;;;5132159;27;19962;-61
2022/04/07 05:50:05;;;;;;;;;;;8.60;99.90;;;;;;5129042;27;19912;-62
2022/04/07 05:52:31;;;;;;;;;;;8.70;99.90;;;;;;5138383;27;20400;-67
2022/04/07 05:54:56;;;;;;;;;;;8.60;99.90;;;;;;5138367;27;19911;-62
2022/04/07 05:57:25;;;;;;;;;;;8.60;99.90;;;;;;5131392;27;19919;-62
2022/04/07 05:59:51;;;;;;;;;;;8.60;99.90;;;;;;5139403;27;19926;-61
2022/04/07 06:02:16;;;;;;;;;;;8.60;99.90;;;;;;5127815;27;20310;-61
2022/04/07 06:04:42;;;;;;;;;;;8.60;99.90;;;;;;5121240;27;19911;-62
2022/04/07 06:07:07;;;;;;;;;;;8.60;99.90;;;;;;5120201;27;19916;-62
2022/04/07 06:09:34;;;;;;;;;;;8.60;99.90;;;;;;5138385;27;20014;-62
2022/04/07 06:12:00;;;;;;;;;;;8.60;99.90;;;;;;5137743;27;19954;-63
2022/04/07 06:14:26;;;;;;;;;;;8.60;99.90;;;;;;5106192;28;19926;-62
2022/04/07 06:16:51;;;;;;;;;;;8.70;99.90;;;;;;5137644;27;20276;-64
2022/04/07 06:19:17;;;;;;;;;;;8.70;99.90;;;;;;5125057;27;21467;-62
2022/04/07 06:21:43;;;;;;;;;;;8.70;99.90;;;;;;5139588;27;19922;-62
2022/04/07 06:24:09;;;;;;;;;;;8.80;99.90;;;;;;5135209;27;20354;-63
2022/04/07 06:26:34;;;;;;;;;;;8.70;99.90;;;;;;5140927;27;19911;-62
2022/04/07 06:29:00;;;;;;;;;;;8.80;99.90;;;;;;5139611;27;19918;-62
2022/04/07 06:31:26;;;;;;;;;;;8.80;99.90;;;;;;5138116;27;19967;-62
2022/04/07 06:33:52;;;;;;;;;;;8.90;99.90;;;;;;5133813;27;20007;-64
2022/04/07 06:36:20;;;;;;;;;;;8.80;99.90;;;;;;5134306;27;19931;-63
2022/04/07 06:38:46;;;;;;;;;;;8.80;99.90;;;;;;5101320;28;19927;-62
2022/04/07 06:41:11;;;;;;;;;;;8.90;99.90;;;;;;5139866;27;19923;-63
2022/04/07 06:43:38;;;;;;;;;;;8.90;99.90;;;;;;5145266;27;19919;-63
2022/04/07 06:46:03;;;;;;;;;;;8.90;99.90;;;;;;5146584;27;19938;-62
2022/04/07 06:48:29;;;;;;;;;;;8.90;99.90;;;;;;5147304;27;19911;-62
2022/04/07 06:50:54;;;;;;;;;;;9.00;99.90;;;;;;5142804;27;19911;-62
2022/04/07 06:53:20;;;;;;;;;;;8.90;99.90;;;;;;5142380;27;19937;-64
2022/04/07 06:55:45;;;;;;;;;;;9.00;99.90;;;;;;5143299;27;19919;-63
2022/04/07 06:58:12;;;;;;;;;;;9.00;99.90;;;;;;5147988;27;19945;-62
2022/04/07 07:00:43;;;;;;;;;;;9.00;99.90;;;;;;5139454;27;19923;-62
2022/04/07 07:03:09;;;;;;;;;;;9.00;99.90;;;;;;5130653;27;19912;-64
2022/04/07 07:05:35;;;;;;;;;;;9.00;99.90;;;;;;5125002;27;19918;-62
2022/04/07 07:08:10;;;;;;;;;;;9.10;99.90;;;;;;5139921;27;19933;-61
2022/04/07 07:10:36;;;;;;;;;;;9.10;99.90;;;;;;5141999;27;20261;-63
2022/04/07 07:13:01;;;;;;;;;;;9.10;99.90;;;;;;5139011;27;19918;-63
2022/04/07 07:15:27;;;;;;;;;;;9.10;99.90;;;;;;5144393;27;19927;-63
2022/04/07 07:17:53;;;;;;;;;;;9.10;99.90;;;;;;5138902;27;19923;-64
2022/04/07 07:20:19;;;;;;;;;;;9.10;99.90;;;;;;5140936;27;19947;-64
2022/04/07 07:22:44;;;;;;;;;;;9.20;99.90;;;;;;5139034;27;19957;-64
2022/04/07 07:25:11;;;;;;;;;;;9.20;99.90;;;;;;5132549;27;19922;-63
2022/04/07 07:27:37;;;;;;;;;;;9.20;99.90;;;;;;5109637;28;19912;-63
2022/04/07 07:30:03;;;;;;;;;;;9.30;99.90;;;;;;5119706;27;19912;-62
2022/04/07 07:32:29;;;;;;;;;;;9.40;99.90;;;;;;5136331;27;19919;-64
2022/04/07 07:34:54;;;;;;;;;;;9.30;99.90;;;;;;5143548;27;20229;-62
2022/04/07 07:37:20;;;;;;;;;;;9.20;99.90;;;;;;5145694;27;19911;-62
2022/04/07 07:39:50;;;;;;;;;;;9.30;99.90;;;;;;5136508;27;19919;-62
2022/04/07 07:42:16;;;;;;;;;;;9.40;99.90;;;;;;5133550;27;19915;-62
2022/04/07 07:44:42;;;;;;;;;;;9.30;99.90;;;;;;5124830;27;19951;-64
2022/04/07 07:47:07;;;;;;;;;;;9.30;99.90;;;;;;5134507;27;19911;-63
2022/04/07 07:49:33;;;;;;;;;;;9.40;99.90;;;;;;5122774;27;20290;-61
2022/04/07 07:51:58;;;;;;;;;;;9.40;99.90;;;;;;5129931;27;19933;-62
2022/04/07 07:54:24;;;;;;;;;;;9.40;99.90;;;;;;5131567;27;19919;-63
2022/04/07 07:56:49;;;;;;;;;;;9.40;99.90;;;;;;5131514;27;19938;-62
2022/04/07 07:59:20;;;;;;;;;;;9.50;99.90;;;;;;5138727;27;20310;-62
2022/04/07 08:01:46;;;;;;;;;;;9.50;99.90;;;;;;5139887;27;19923;-68
2022/04/07 08:04:12;;;;;;;;;;;9.40;99.90;;;;;;5138800;27;19919;-64
2022/04/07 08:06:38;;;;;;;;;;;9.40;99.90;;;;;;5126744;27;19912;-62
2022/04/07 08:09:04;;;;;;;;;;;9.50;99.90;;;;;;5138555;27;20376;-63
2022/04/07 08:11:30;;;;;;;;;;;9.50;99.90;;;;;;5138260;27;19933;-65
2022/04/07 08:13:56;;;;;;;;;;;9.50;99.90;;;;;;5136864;27;20007;-63
2022/04/07 08:16:21;;;;;;;;;;;9.60;99.90;;;;;;5118953;27;19922;-63
2022/04/07 08:18:47;;;;;;;;;;;9.50;99.90;;;;;;5131885;27;20437;-63
2022/04/07 08:21:12;;;;;;;;;;;9.50;99.90;;;;;;5135825;27;19929;-62
2022/04/07 08:23:38;;;;;;;;;;;9.60;99.90;;;;;;5135161;27;19912;-64
2022/04/07 08:26:03;;;;;;;;;;;9.50;99.90;;;;;;5138268;27;19943;-62
2022/04/07 08:28:29;;;;;;;;;;;9.60;99.90;;;;;;5139228;27;19907;-62
2022/04/07 08:30:57;;;;;;;;;;;9.60;99.90;;;;;;5133360;27;19912;-62
2022/04/07 08:33:23;;;;;;;;;;;9.70;99.90;;;;;;5150233;27;19950;-63
2022/04/07 08:35:49;;;;;;;;;;;9.70;99.90;;;;;;5132391;28;19920;-62
2022/04/07 08:38:15;;;;;;;;;;;9.80;99.90;;;;;;5115612;28;19947;-62
2022/04/07 08:40:41;;;;;;;;;;;9.80;99.90;;;;;;5130077;28;19911;-64
2022/04/07 08:43:08;;;;;;;;;;;9.80;99.90;;;;;;5144883;27;19923;-63
2022/04/07 08:45:35;;;;;;;;;;;9.90;99.90;;;;;;5133014;27;19958;-62
2022/04/07 08:48:02;;;;;;;;;;;9.90;99.90;;;;;;5141379;27;19923;-63
2022/04/07 08:50:27;;;;;;;;;;;9.90;99.90;;;;;;5148265;27;19907;-63
2022/04/07 08:52:53;;;;;;;;;;;10.00;99.90;;;;;;5148289;27;19911;-62
2022/04/07 08:55:19;;;;;;;;;;;9.90;99.90;;;;;;5138476;27;19908;-63
2022/04/07 08:57:45;;;;;;;;;;;10.00;99.90;;;;;;5138029;27;19920;-63
2022/04/07 09:00:11;;;;;;;;;;;10.10;99.90;;;;;;5133552;28;19931;-62
2022/04/07 09:02:37;;;;;;;;;;;10.00;99.90;;;;;;5136301;28;19911;-63
2022/04/07 09:05:09;;;;;;;;;;;10.20;99.90;;;;;;5140119;27;19912;-61
2022/04/07 09:07:35;;;;;;;;;;;10.20;99.90;;;;;;5141963;27;19929;-62
2022/04/07 09:10:01;;;;;;;;;;;10.40;99.90;;;;;;5134426;27;19923;-62
2022/04/07 09:12:27;;;;;;;;;;;10.50;99.90;;;;;;5130855;27;19919;-62
2022/04/07 09:14:57;;;;;;;;;;;10.40;99.90;;;;;;5133619;28;19912;-64
2022/04/07 09:17:23;;;;;;;;;;;10.40;99.90;;;;;;5119390;28;19911;-63
2022/04/07 09:19:49;;;;;;;;;;;10.50;99.90;;;;;;5126878;28;20680;-62
2022/04/07 09:22:15;;;;;;;;;;;10.40;99.90;;;;;;5133935;27;19911;-62
2022/04/07 09:24:41;;;;;;;;;;;10.30;99.90;;;;;;5137011;28;19919;-62
2022/04/07 09:27:08;;;;;;;;;;;10.30;99.90;;;;;;5136350;28;19922;-63
2022/04/07 09:29:38;;;;;;;;;;;10.40;99.90;;;;;;5121941;28;19919;-62
2022/04/07 09:32:04;;;;;;;;;;;10.40;99.90;;;;;;5126185;28;19919;-66
2022/04/07 09:34:33;;;;;;;;;;;10.60;99.90;;;;;;5135259;28;20261;-63
2022/04/07 09:37:08;;;;;;;;;;;10.70;99.90;;;;;;5125098;27;19920;-63
2022/04/07 09:39:36;;;;;;;;;;;10.40;99.90;;;;;;5123890;28;19915;-61
2022/04/07 09:42:22;;;;;;;;;;;10.50;99.90;;;;;;5137036;28;19919;-62
2022/04/07 09:44:59;;;;;;;;;;;10.50;99.90;;;;;;5112951;28;19911;-62
2022/04/07 09:47:45;;;;;;;;;;;10.70;99.90;;;;;;5125617;28;19947;-62
2022/04/07 09:50:24;;;;;;;;;;;10.80;99.90;;;;;;5110993;28;19979;-62
2022/04/07 09:53:10;;;;;;;;;;;10.90;99.90;;;;;;5135477;28;19919;-63
2022/04/07 09:55:42;;;;;;;;;;;10.90;99.90;;;;;;5122808;28;19912;-63
2022/04/07 09:58:10;;;;;;;;;;;10.80;99.90;;;;;;5140819;27;19916;-62
2022/04/07 10:00:36;;;;;;;;;;;10.90;99.90;;;;;;5127944;28;19915;-63
2022/04/07 10:03:02;;;;;;;;;;;10.80;99.90;;;;;;5113925;28;19911;-62
2022/04/07 10:05:28;;;;;;;;;;;10.90;99.90;;;;;;5133418;28;19918;-63
2022/04/07 10:07:56;;;;;;;;;;;10.80;99.90;;;;;;5126610;28;19951;-62
2022/04/07 10:10:22;;;;;;;;;;;10.90;99.90;;;;;;5133666;27;19912;-62
2022/04/07 10:12:47;;;;;;;;;;;11.10;99.90;;;;;;5127360;27;19922;-62
2022/04/07 10:15:17;;;;;;;;;;;11.20;99.90;;;;;;5136729;27;19911;-63
2022/04/07 10:17:42;;;;;;;;;;;11.10;99.90;;;;;;5146401;27;19911;-63
2022/04/07 10:20:10;;;;;;;;;;;11.30;99.90;;;;;;5140890;27;20288;-62
2022/04/07 10:22:41;;;;;;;;;;;11.30;99.90;;;;;;5138663;27;20285;-62
2022/04/07 10:25:07;;;;;;;;;;;11.30;99.90;;;;;;5129818;27;20395;-62
2022/04/07 10:27:35;;;;;;;;;;;11.30;99.90;;;;;;5126670;27;19937;-62
2022/04/07 10:30:02;;;;;;;;;;;11.40;99.90;;;;;;5117544;28;19912;-62
2022/04/07 10:32:35;;;;;;;;;;;11.50;99.90;;;;;;5118805;27;19964;-63
2022/04/07 10:35:00;;;;;;;;;;;11.50;99.90;;;;;;5125546;27;19912;-63
2022/04/07 10:37:41;;;;;;;;;;;11.50;99.90;;;;;;5134169;27;19919;-62
2022/04/07 10:40:26;;;;;;;;;;;11.60;99.90;;;;;;5129881;27;19915;-63
2022/04/07 10:43:06;;;;;;;;;;;11.50;99.90;;;;;;5139484;27;19918;-63
2022/04/07 10:45:33;;;;;;;;;;;11.40;99.90;;;;;;5122415;27;19991;-63
2022/04/07 10:48:18;;;;;;;;;;;11.70;99.90;;;;;;5138555;27;19918;-62
2022/04/07 10:50:46;;;;;;;;;;;11.80;99.90;;;;;;5131405;27;19934;-63
2022/04/07 10:53:28;;;;;;;;;;;11.90;99.90;;;;;;5124627;27;19920;-62
2022/04/07 10:56:05;;;;;;;;;;;11.60;99.90;;;;;;5122491;27;20280;-62
2022/04/07 10:58:50;;;;;;;;;;;11.50;99.90;;;;;;5138984;27;19915;-64
2022/04/07 11:01:31;;;;;;;;;;;11.60;99.90;;;;;;5128256;27;19916;-62
2022/04/07 11:04:20;;;;;;;;;;;11.60;99.90;;;;;;5130865;27;19934;-63
2022/04/07 11:07:15;;;;;;;;;;;11.40;99.90;;;;;;5123135;27;19937;-62
2022/04/07 11:09:44;;;;;;;;;;;11.70;99.90;;;;;;5104354;28;19912;-62
2022/04/07 11:12:11;;;;;;;;;;;11.70;99.90;;;;;;5135251;27;19911;-62
2022/04/07 11:14:36;;;;;;;;;;;11.60;99.90;;;;;;5128820;27;19911;-63
2022/04/07 11:17:08;;;;;;;;;;;11.70;99.90;;;;;;5137234;27;19934;-66
2022/04/07 11:20:03;;;;;;;;;;;11.60;99.90;;;;;;5114745;27;19963;-63
2022/04/07 11:22:59;;;;;;;;;;;11.60;99.90;;;;;;5113239;27;19922;-63
2022/04/07 11:25:24;;;;;;;;;;;11.70;99.90;;;;;;5115954;27;19926;-62
2022/04/07 11:28:10;;;;;;;;;;;11.80;99.90;;;;;;5135267;27;19911;-62
2022/04/07 11:30:40;;;;;;;;;;;11.80;99.90;;;;;;5128244;27;19915;-63
2022/04/07 11:33:18;;;;;;;;;;;11.80;99.90;;;;;;5133685;27;20006;-63
2022/04/07 11:35:58;;;;;;;;;;;11.80;99.90;;;;;;5135781;27;19959;-63
2022/04/07 11:38:27;;;;;;;;;;;11.80;99.90;;;;;;5131220;27;19976;-62
2022/04/07 11:40:58;;;;;;;;;;;11.70;99.90;;;;;;5113541;27;20384;-62
2022/04/07 11:43:24;;;;;;;;;;;11.70;99.90;;;;;;5118338;28;19918;-64
2022/04/07 11:45:50;;;;;;;;;;;11.70;99.90;;;;;;5130554;27;19916;-62
2022/04/07 11:48:15;;;;;;;;;;;11.70;99.90;;;;;;5138835;27;19912;-62
2022/04/07 11:50:41;;;;;;;;;;;11.90;99.90;;;;;;5130754;27;19916;-62
2022/04/07 11:53:07;;;;;;;;;;;11.80;99.90;;;;;;5115610;28;20385;-63
2022/04/07 11:55:32;;;;;;;;;;;11.70;99.90;;;;;;5119756;27;19960;-63
2022/04/07 11:57:58;;;;;;;;;;;11.60;99.90;;;;;;5133878;27;19915;-63
2022/04/07 12:00:30;;;;;;;;;;;11.60;99.90;;;;;;5126608;27;20065;-63
2022/04/07 12:03:03;;;;;;;;;;;11.70;99.90;;;;;;5139950;27;19918;-62
2022/04/07 12:05:30;;;;;;;;;;;11.80;99.90;;;;;;5141177;27;19911;-66
2022/04/07 12:08:16;;;;;;;;;;;11.70;99.90;;;;;;5129346;27;19899;-62
2022/04/07 12:10:45;;;;;;;;;;;11.80;99.90;;;;;;5152205;27;19912;-63
2022/04/07 12:13:11;;;;;;;;;;;11.90;99.90;;;;;;5156283;27;19904;-63
2022/04/07 12:15:37;;;;;;;;;;;11.90;99.90;;;;;;5133844;27;19996;-63
2022/04/07 12:18:04;;;;;;;;;;;11.80;99.90;;;;;;5148464;27;19935;-64
2022/04/07 12:20:30;;;;;;;;;;;12.00;99.90;;;;;;5153826;27;19915;-65
2022/04/07 12:23:14;;;;;;;;;;;12.00;99.90;;;;;;5128385;28;19962;-63
2022/04/07 12:25:41;;;;;;;;;;;12.10;99.90;;;;;;5143227;27;19979;-67
2022/04/07 12:28:10;;;;;;;;;;;11.80;99.90;;;;;;5157877;27;19903;-66
2022/04/07 12:30:46;;;;;;;;;;;11.80;99.90;;;;;;5147037;27;19923;-64
2022/04/07 12:33:32;;;;;;;;;;;11.80;99.90;;;;;;5128424;27;19916;-63
2022/04/07 12:35:57;;;;;;;;;;;11.90;99.90;;;;;;5137728;27;19956;-62
2022/04/07 12:38:23;;;;;;;;;;;11.60;99.90;;;;;;5138752;27;19923;-62
2022/04/07 12:40:49;;;;;;;;;;;11.70;99.90;;;;;;5152802;27;19904;-64
2022/04/07 12:43:15;;;;;;;;;;;11.80;99.90;;;;;;5133715;27;19915;-64
2022/04/07 12:45:57;;;;;;;;;;;11.70;99.90;;;;;;5122859;28;19911;-64
2022/04/07 12:48:23;;;;;;;;;;;11.90;99.90;;;;;;5141552;27;19964;-63
2022/04/07 12:50:49;;;;;;;;;;;11.80;99.90;;;;;;5143413;27;19958;-64
2022/04/07 12:53:31;;;;;;;;;;;11.80;99.90;;;;;;5140825;27;19916;-63
2022/04/07 12:56:02;;;;;;;;;;;11.90;99.90;;;;;;5137574;28;19926;-62
2022/04/07 12:58:28;;;;;;;;;;;12.00;99.90;;;;;;5131410;27;19942;-62
2022/04/07 13:01:00;;;;;;;;;;;12.00;99.90;;;;;;5136760;27;19920;-62
2022/04/07 13:03:28;;;;;;;;;;;12.00;99.90;;;;;;5141436;27;19900;-65
2022/04/07 13:05:59;;;;;;;;;;;12.10;99.90;;;;;;5156302;27;19907;-63
2022/04/07 13:08:24;;;;;;;;;;;12.10;99.90;;;;;;5134781;28;20341;-63
2022/04/07 13:10:50;;;;;;;;;;;12.00;99.90;;;;;;5132152;28;19927;-64
2022/04/07 13:13:15;;;;;;;;;;;11.60;99.90;;;;;;5141326;27;19934;-64
2022/04/07 13:15:41;;;;;;;;;;;11.80;99.90;;;;;;5150215;27;19904;-63
2022/04/07 13:18:07;;;;;;;;;;;11.80;99.90;;;;;;5143131;27;20439;-62
2022/04/07 13:20:32;;;;;;;;;;;11.80;99.90;;;;;;5137914;27;19962;-63
2022/04/07 13:22:58;;;;;;;;;;;11.50;99.90;;;;;;5138124;28;19911;-63
2022/04/07 13:25:23;;;;;;;;;;;10.80;99.90;;;;;;5126211;28;20005;-63
2022/04/07 13:27:49;;;;;;;;;;;10.00;99.90;;;;;;5124292;27;19918;-62
2022/04/07 13:30:14;;;;;;;;;;;9.80;99.90;;;;;;5125451;28;19919;-63
2022/04/07 13:32:40;;;;;;;;;;;9.80;99.90;;;;;;5126254;28;19934;-63
2022/04/07 13:35:06;;;;;;;;;;;9.80;99.90;;;;;;5130844;28;19920;-63
2022/04/07 13:37:32;;;;;;;;;;;9.80;99.90;;;;;;5118624;28;19919;-62
2022/04/07 13:39:57;;;;;;;;;;;9.80;99.90;;;;;;5129940;28;19919;-64
2022/04/07 13:42:23;;;;;;;;;;;9.60;99.90;;;;;;5129956;27;19911;-62
2022/04/07 13:44:49;;;;;;;;;;;9.50;99.90;;;;;;5139408;27;19928;-62
2022/04/07 13:47:14;;;;;;;;;;;9.50;99.90;;;;;;5125860;27;20364;-61
2022/04/07 13:49:40;;;;;;;;;;;9.50;99.90;;;;;;5140353;27;19915;-63
2022/04/07 13:52:10;;;;;;;;;;;9.50;99.90;;;;;;5133682;27;19966;-66
2022/04/07 13:54:36;;;;;;;;;;;9.60;99.90;;;;;;5146896;27;19911;-63
2022/04/07 13:57:04;;;;;;;;;;;9.90;99.90;;;;;;5136449;27;19918;-61
2022/04/07 13:59:30;;;;;;;;;;;10.30;99.90;;;;;;5139490;27;20368;-62
2022/04/07 14:01:57;;;;;;;;;;;10.60;99.90;;;;;;5123238;28;19957;-63
2022/04/07 14:04:22;;;;;;;;;;;10.80;99.90;;;;;;5137556;27;19939;-64
2022/04/07 14:06:48;;;;;;;;;;;10.80;99.90;;;;;;5140764;27;19950;-62
2022/04/07 14:09:13;;;;;;;;;;;10.70;99.90;;;;;;5138179;27;19915;-64
2022/04/07 14:11:39;;;;;;;;;;;10.60;99.90;;;;;;5141466;27;19915;-67
2022/04/07 14:14:05;;;;;;;;;;;10.40;99.90;;;;;;5136439;27;19920;-63
2022/04/07 14:16:31;;;;;;;;;;;10.30;99.90;;;;;;5142850;27;19974;-62
2022/04/07 14:18:57;;;;;;;;;;;10.30;99.90;;;;;;5143706;27;19915;-62
2022/04/07 14:21:23;;;;;;;;;;;10.30;99.90;;;;;;5136289;27;19946;-63
2022/04/07 14:23:48;;;;;;;;;;;10.10;99.90;;;;;;5129902;27;20392;-63
2022/04/07 14:26:14;;;;;;;;;;;9.50;99.90;;;;;;5129854;27;19911;-63
2022/04/07 14:28:40;;;;;;;;;;;8.40;99.90;;;;;;5123341;27;19918;-62